Time;durP1;ratioP1;P1;durP2;ratioP2;P2;SDS_P1;SDS_P2;PMS_P1;PMS_P2;Temp;Humidity;BMP_temperature;BMP_pressure;BME280_temperature;BME280_humidity;BME280_pressure;Samples;Min_cycle;Max_cycle;Signal;HPM_P1;HPM_P2
2021/12/20 00:00:47;;;;;;;64.07;24.90;;;;;;;;;;5069566;28;20399;-84
2021/12/20 00:03:14;;;;;;;67.03;23.43;;;;;;;;;;5066906;28;20417;-85
2021/12/20 00:05:40;;;;;;;60.97;25.87;;;;;;;;;;5069304;28;20461;-83
2021/12/20 00:08:06;;;;;;;67.77;24.13;;;;;;;;;;5069658;28;20388;-84
2021/12/20 00:10:32;;;;;;;69.30;23.00;;;;;;;;;;5070021;28;20417;-83
2021/12/20 00:12:58;;;;;;;49.00;23.20;;;;;;;;;;5081718;28;20408;-83
2021/12/20 00:15:26;;;;;;;66.53;24.60;;;;;;;;;;5077647;28;20450;-83
2021/12/20 00:17:52;;;;;;;60.97;25.07;;;;;;;;;;5078869;28;20387;-83
2021/12/20 00:20:19;;;;;;;56.77;23.10;;;;;;;;;;5079233;28;20510;-83
2021/12/20 00:22:45;;;;;;;61.23;23.67;;;;;;;;;;5077577;28;20506;-83
2021/12/20 00:25:11;;;;;;;67.87;24.90;;;;;;;;;;5078784;28;20442;-84
2021/12/20 00:27:37;;;;;;;70.33;22.23;;;;;;;;;;5079462;28;20858;-84
2021/12/20 00:30:05;;;;;;;55.57;22.00;;;-0.40;99.90;;;;;;5077531;28;20395;-84
2021/12/20 00:32:31;;;;;;;68.90;25.80;;;;;;;;;;5078927;28;20822;-84
2021/12/20 00:34:57;;;;;;;69.17;23.93;;;;;;;;;;5079008;28;20433;-84
2021/12/20 00:40:23;;;;;;;72.90;27.37;;;;;;;;;;5077502;28;20508;-84
2021/12/20 00:42:52;;;;;;;85.47;28.17;;;;;;;;;;5077766;28;20380;-84
2021/12/20 00:45:18;;;;;;;69.20;26.20;;;;;;;;;;5077795;28;20399;-84
2021/12/20 00:47:44;;;;;;;75.03;26.20;;;;;;;;;;5079200;28;20514;-84
2021/12/20 00:50:11;;;;;;;72.00;26.33;;;1.90;99.90;;;;;;5076390;28;20422;-84
2021/12/20 00:52:37;;;;;;;79.43;25.17;;;;;;;;;;5077670;28;20464;-84
2021/12/20 00:55:04;;;;;;;71.27;26.10;;;2.10;99.90;;;;;;5076608;28;20495;-84
2021/12/20 00:57:30;;;;;;;72.83;24.93;;;;;;;;;;5080154;28;21034;-83
2021/12/20 00:59:56;;;;;;;73.07;25.20;;;;;;;;;;5076258;28;20453;-84
2021/12/20 01:02:25;;;;;;;64.00;24.67;;;;;;;;;;5079169;28;20405;-84
2021/12/20 01:04:51;;;;;;;72.83;25.17;;;;;;;;;;5077549;28;20933;-84
2021/12/20 01:07:17;;;;;;;74.20;25.67;;;;;;;;;;5077590;28;20720;-84
2021/12/20 01:09:43;;;;;;;74.77;26.80;;;;;;;;;;5077525;28;20416;-84
2021/12/20 01:12:16;;;;;;;76.97;26.57;;;;;;;;;;5076464;28;20383;-83
2021/12/20 01:14:43;;;;;;;82.03;27.33;;;;;;;;;;5078744;28;20420;-83
2021/12/20 01:17:09;;;;;;;69.20;28.40;;;;;;;;;;5075863;28;20393;-83
2021/12/20 01:19:35;;;;;;;76.53;26.30;;;;;;;;;;5076390;28;20453;-83
2021/12/20 01:22:02;;;;;;;69.77;22.97;;;;;;;;;;5079058;28;21067;-83
2021/12/20 01:24:28;;;;;;;76.57;27.20;;;;;;;;;;5077159;28;20513;-84
2021/12/20 01:26:54;;;;;;;79.67;25.20;;;;;;;;;;5078088;28;20915;-84
2021/12/20 01:29:20;;;;;;;72.93;28.90;;;;;;;;;;5077070;28;20404;-84
2021/12/20 01:31:46;;;;;;;84.37;28.13;;;;;;;;;;5078928;28;20394;-84
2021/12/20 01:36:57;;;;;;;82.77;27.10;;;;;;;;;;5064467;28;20971;-83
2021/12/20 01:39:23;;;;;;;83.03;26.40;;;;;;;;;;5063561;28;20396;-83
2021/12/20 01:41:53;;;;;;;86.37;28.30;;;;;;;;;;5064951;28;20381;-83
2021/12/20 01:44:19;;;;;;;84.67;25.83;;;;;;;;;;5061074;28;20499;-84
2021/12/20 01:46:45;;;;;;;80.73;26.70;;;;;;;;;;5054223;28;20395;-84
2021/12/20 01:49:14;;;;;;;81.93;26.00;;;;;;;;;;5054255;28;20437;-84
2021/12/20 01:52:11;;;;;;;95.30;28.90;;;;;;;;;;5055754;28;20397;-84
2021/12/20 01:54:44;;;;;;;103.63;30.40;;;;;;;;;;5053497;28;20438;-83
2021/12/20 01:57:12;;;;;;;79.30;25.73;;;;;;;;;;5051534;28;20402;-83
2021/12/20 01:59:39;;;;;;;93.77;29.90;;;;;;;;;;5053504;28;20434;-83
2021/12/20 02:02:11;;;;;;;87.37;25.97;;;;;;;;;;5052169;28;20411;-83
2021/12/20 02:04:47;;;;;;;96.83;28.13;;;;;;;;;;5052242;28;20981;-83
2021/12/20 02:07:35;;;;;;;77.23;26.37;;;;;;;;;;5052767;28;20409;-84
2021/12/20 02:10:01;;;;;;;86.50;27.30;;;;;;;;;;5055036;28;20493;-84
2021/12/20 02:12:30;;;;;;;82.77;28.90;;;;;;;;;;5055517;28;20438;-84
2021/12/20 02:14:56;;;;;;;113.07;31.50;;;;;;;;;;5054463;28;20916;-84
2021/12/20 02:17:25;;;;;;;103.23;27.57;;;;;;;;;;5053070;28;20744;-83
2021/12/20 02:19:51;;;;;;;97.03;28.40;;;;;;;;;;5054579;28;20508;-83
2021/12/20 02:22:18;;;;;;;90.43;27.03;;;;;;;;;;5054585;28;20405;-83
2021/12/20 02:24:44;;;;;;;88.27;26.20;;;;;;;;;;5052735;28;20772;-83
2021/12/20 02:27:17;;;;;;;103.20;29.90;;;;;;;;;;5054473;28;20452;-83
2021/12/20 02:30:02;;;;;;;116.27;29.73;;;;;;;;;;5053226;28;20819;-83
2021/12/20 02:38:01;;;;;;;105.60;26.30;;;;;;;;;;5054722;28;20501;-83
2021/12/20 02:40:27;;;;;;;120.13;29.10;;;;;;;;;;5052926;28;20370;-83
2021/12/20 02:42:53;;;;;;;114.63;31.90;;;;;;;;;;5053789;28;20401;-83
2021/12/20 02:45:19;;;;;;;106.60;30.93;;;;;;;;;;5052954;28;20951;-83
2021/12/20 02:47:47;;;;;;;112.50;31.97;;;;;;;;;;5041749;28;20504;-83
2021/12/20 02:50:13;;;;;;;119.10;29.57;;;;;;;;;;5039289;28;20464;-83
2021/12/20 02:52:45;;;;;;;114.73;30.90;;;;;;;;;;5040080;28;20442;-83
2021/12/20 02:55:11;;;;;;;107.43;30.77;;;;;;;;;;5039723;28;20469;-83
2021/12/20 02:57:40;;;;;;;111.97;29.33;;;;;;;;;;5038831;28;20860;-83
2021/12/20 03:00:08;;;;;;;104.10;31.07;;;;;;;;;;5039711;28;20476;-83
2021/12/20 03:02:37;;;;;;;104.80;31.00;;;;;;;;;;5039983;28;20489;-83
2021/12/20 03:05:04;;;;;;;98.60;28.40;;;;;;;;;;5041548;28;20504;-83
2021/12/20 03:07:37;;;;;;;108.30;29.83;;;;;;;;;;5039428;28;20442;-83
2021/12/20 03:10:04;;;;;;;100.50;30.77;;;;;;;;;;5037410;28;20864;-83
2021/12/20 03:12:32;;;;;;;109.27;29.63;;;;;;;;;;5041277;28;20483;-83
2021/12/20 03:15:04;;;;;;;105.63;30.70;;;;;;;;;;5040328;28;20463;-83
2021/12/20 03:17:33;;;;;;;106.10;32.73;;;;;;;;;;5039459;28;20954;-83
2021/12/20 03:19:59;;;;;;;100.73;31.27;;;;;;;;;;5039380;28;20385;-83
2021/12/20 03:22:26;;;;;;;106.23;30.10;;;;;;;;;;5040571;28;20377;-83
2021/12/20 03:24:58;;;;;;;87.83;29.57;;;;;;;;;;5037785;28;20439;-83
2021/12/20 03:27:24;;;;;;;104.00;28.20;;;;;;;;;;5038863;28;20411;-83
2021/12/20 03:29:55;;;;;;;111.93;31.40;;;;;;;;;;5038900;28;20464;-83
2021/12/20 03:32:30;;;;;;;106.27;31.90;;;;;;;;;;5040434;28;20415;-83
2021/12/20 03:34:59;;;;;;;99.87;29.70;;;;;;;;;;5039608;28;20811;-84
2021/12/20 03:37:28;;;;;;;103.37;31.97;;;;;;;;;;5037034;28;20440;-84
2021/12/20 03:39:54;;;;;;;107.13;30.47;;;;;;;;;;5038163;28;20758;-83
2021/12/20 03:42:20;;;;;;;94.50;28.63;;;;;;;;;;5040293;28;20389;-84
2021/12/20 03:44:49;;;;;;;83.77;28.40;;;;;;;;;;5038365;28;20457;-84
2021/12/20 03:47:18;;;;;;;103.23;29.50;;;;;;;;;;5039417;28;20410;-83
2021/12/20 03:49:56;;;;;;;97.70;31.20;;;;;;;;;;5040335;28;20414;-83
2021/12/20 03:52:25;;;;;;;122.53;29.83;;;;;;;;;;5042846;28;20390;-83
2021/12/20 03:54:54;;;;;;;109.17;30.83;;;;;;;;;;5038557;28;20489;-82
2021/12/20 03:57:20;;;;;;;103.60;32.57;;;;;;;;;;5038354;28;20456;-82
2021/12/20 03:59:53;;;;;;;104.90;32.50;;;;;;;;;;5039320;28;20418;-82
2021/12/20 04:02:21;;;;;;;100.20;29.93;;;;;;;;;;5039687;28;20411;-83
2021/12/20 04:04:53;;;;;;;110.80;30.90;;;;;;;;;;5037842;28;20437;-82
2021/12/20 04:07:19;;;;;;;118.77;30.27;;;;;;;;;;5038369;28;20494;-83
2021/12/20 04:10:29;;;;;;;94.87;29.60;;;;;;;;;;5040096;28;20517;-83
2021/12/20 04:12:58;;;;;;;111.27;30.60;;;;;;;;;;5032844;28;20381;-83
2021/12/20 04:15:24;;;;;;;89.93;30.10;;;;;;;;;;5037620;28;20472;-84
2021/12/20 04:17:58;;;;;;;114.00;31.13;;;;;;;;;;5037454;28;20385;-84
2021/12/20 04:20:24;;;;;;;100.67;30.87;;;;;;;;;;5042046;28;20516;-84
2021/12/20 04:22:50;;;;;;;95.40;33.03;;;;;;;;;;5040931;28;20969;-84
2021/12/20 04:25:16;;;;;;;110.50;31.70;;;;;;;;;;5039878;28;20496;-84
2021/12/20 04:27:42;;;;;;;111.87;32.20;;;;;;;;;;5040967;28;20416;-84
2021/12/20 04:30:20;;;;;;;117.07;33.90;;;;;;;;;;5035367;28;20392;-84
2021/12/20 04:32:49;;;;;;;110.20;33.07;;;;;;;;;;5039409;28;20381;-84
2021/12/20 04:35:16;;;;;;;121.57;32.93;;;;;;;;;;5036386;28;20564;-84
2021/12/20 04:37:44;;;;;;;111.63;33.47;;;;;;;;;;5037810;28;20426;-84
2021/12/20 04:40:21;;;;;;;127.73;32.30;;;;;;;;;;5037936;28;20389;-84
2021/12/20 04:42:48;;;;;;;124.97;33.50;;;;;;;;;;5038729;28;20398;-84
2021/12/20 04:45:14;;;;;;;128.43;31.40;;;;;;;;;;5035016;23;20624;-84
2021/12/20 04:47:43;;;;;;;125.70;31.10;;;;;;;;;;5032944;28;20394;-84
2021/12/20 04:50:09;;;;;;;112.73;31.40;;;;;;;;;;5016634;28;20502;-84
2021/12/20 04:52:38;;;;;;;123.73;32.40;;;;;;;;;;5020088;28;20466;-84
2021/12/20 04:55:13;;;;;;;113.80;32.70;;;;;;;;;;5017335;28;20458;-84
2021/12/20 04:57:45;;;;;;;115.67;30.30;;;;;;;;;;5016941;28;20736;-84
2021/12/20 05:00:13;;;;;;;121.60;32.30;;;;;;;;;;5015443;28;20396;-84
2021/12/20 05:02:39;;;;;;;111.13;29.00;;;;;;;;;;5017870;28;20448;-84
2021/12/20 05:05:05;;;;;;;109.10;30.37;;;;;;;;;;5019117;28;20472;-84
2021/12/20 05:07:37;;;;;;;106.57;30.80;;;;;;;;;;5017614;28;20527;-84
2021/12/20 05:10:05;;;;;;;104.87;29.73;;;;;;;;;;5017154;28;20419;-84
2021/12/20 05:12:31;;;;;;;114.33;31.13;;;;;;;;;;5014281;28;20408;-82
2021/12/20 05:15:23;;;;;;;105.40;28.60;;;;;;;;;;5017103;28;20997;-84
2021/12/20 05:17:50;;;;;;;111.30;30.23;;;;;;;;;;5016847;28;20407;-82
2021/12/20 05:20:40;;;;;;;102.23;28.43;;;;;;;;;;5017998;28;20394;-82
2021/12/20 05:23:08;;;;;;;105.43;30.47;;;;;;;;;;5018708;28;20393;-82
2021/12/20 05:25:34;;;;;;;119.63;30.77;;;;;;;;;;5017471;28;20856;-85
2021/12/20 05:28:02;;;;;;;101.43;30.10;;;;;;;;;;5015998;28;20899;-82
2021/12/20 05:30:29;;;;;;;95.23;29.30;;;;;;;;;;5014078;28;20391;-82
2021/12/20 05:33:00;;;;;;;97.87;27.90;;;;;;;;;;5018344;28;20416;-82
2021/12/20 05:35:44;;;;;;;115.17;31.00;;;;;;;;;;5017103;28;20483;-82
2021/12/20 05:38:12;;;;;;;114.47;31.50;;;;;;;;;;4988229;28;20396;-83
2021/12/20 05:40:41;;;;;;;108.20;30.10;;;;;;;;;;4989505;28;20873;-83
2021/12/20 05:43:07;;;;;;;110.47;31.03;;;;;;;;;;4989611;28;20515;-85
2021/12/20 05:45:33;;;;;;;95.33;31.07;;;;;;;;;;4989210;28;20866;-83
2021/12/20 05:48:00;;;;;;;114.30;30.57;;;;;;;;;;4989464;28;20469;-82
2021/12/20 05:50:37;;;;;;;109.77;31.07;;;;;;;;;;4989515;28;20823;-83
2021/12/20 05:53:03;;;;;;;101.43;29.37;;;;;;;;;;5005774;28;20427;-83
2021/12/20 05:55:34;;;;;;;103.47;32.27;;;;;;;;;;5008981;28;20751;-82
2021/12/20 05:58:00;;;;;;;119.63;32.70;;;;;;;;;;5009127;28;20401;-83
2021/12/20 06:00:29;;;;;;;121.43;31.93;;;;;;;;;;5009023;28;20414;-85
2021/12/20 06:03:00;;;;;;;99.83;29.10;;;;;;;;;;5010140;28;20865;-83
2021/12/20 06:05:26;;;;;;;109.03;31.27;;;;;;;;;;5009614;28;21002;-83
2021/12/20 06:07:52;;;;;;;105.60;29.13;;;;;;;;;;5010484;28;20430;-84
2021/12/20 06:10:20;;;;;;;100.90;31.67;;;;;;;;;;5010513;28;20414;-83
2021/12/20 06:12:52;;;;;;;101.77;29.97;;;;;;;;;;5009891;28;20471;-83
2021/12/20 06:15:18;;;;;;;116.87;33.10;;;;;;;;;;5013915;28;20463;-83
2021/12/20 06:17:44;;;;;;;113.30;32.23;;;;;;;;;;5013208;28;20379;-83
2021/12/20 06:20:13;;;;;;;117.10;30.77;;;;;;;;;;5010853;28;20394;-83
2021/12/20 06:22:46;;;;;;;106.87;31.10;;;;;;;;;;5012874;28;20424;-84
2021/12/20 06:25:15;;;;;;;120.53;29.83;;;;;;;;;;5014730;28;20950;-83
2021/12/20 06:27:42;;;;;;;87.53;30.23;;;;;;;;;;5015776;28;20395;-83
2021/12/20 06:30:12;;;;;;;101.47;28.33;;;;;;;;;;5015404;28;20457;-83
2021/12/20 06:32:42;;;;;;;122.13;32.50;;;;;;;;;;5015367;28;21135;-83
2021/12/20 06:35:27;;;;;;;106.17;31.20;;;;;;;;;;5016799;28;20467;-83
2021/12/20 06:38:43;;;;;;;128.27;34.13;;;;;;;;;;5018274;28;20410;-83
2021/12/20 06:41:10;;;;;;;91.90;32.07;;;;;;;;;;5011242;28;20428;-83
2021/12/20 06:43:40;;;;;;;114.90;33.33;;;;;;;;;;5007858;28;20870;-83
2021/12/20 06:46:19;;;;;;;108.20;32.73;;;;;;;;;;5016020;28;20455;-83
2021/12/20 06:48:55;;;;;;;;;;;;;;;;;;;;;
2021/12/20 06:51:34;;;;;;;86.73;32.57;;;;;;;;;;5018275;28;20511;-83
2021/12/20 06:54:08;;;;;;;82.43;26.60;;;;;;;;;;5013407;28;20452;-83
2021/12/20 06:56:40;;;;;;;89.13;31.10;;;;;;;;;;5010953;28;20843;-83
2021/12/20 06:59:15;;;;;;;108.57;33.83;;;;;;;;;;5014274;28;20427;-83
2021/12/20 07:01:41;;;;;;;96.80;30.97;;;;;;;;;;5014795;28;20432;-84
2021/12/20 07:04:07;;;;;;;100.60;34.10;;;;;;;;;;5017261;28;20466;-83
2021/12/20 07:06:39;;;;;;;88.70;30.03;;;;;;;;;;5011102;28;20416;-84
2021/12/20 07:09:34;;;;;;;89.93;31.07;;;;;;;;;;5011031;28;20431;-84
2021/12/20 07:12:03;;;;;;;86.53;29.43;;;;;;;;;;5018824;28;20438;-83
2021/12/20 07:14:30;;;;;;;93.93;27.47;;;;;;;;;;5030435;28;20443;-83
2021/12/20 07:16:56;;;;;;;82.47;29.00;;;;;;;;;;5030260;28;20989;-83
2021/12/20 07:19:32;;;;;;;101.10;31.70;;;;;;;;;;5031062;28;20837;-83
2021/12/20 07:22:05;;;;;;;77.67;27.40;;;;;;;;;;5033670;28;20956;-84
2021/12/20 07:24:31;;;;;;;95.17;28.80;;;;;;;;;;5031979;28;20401;-83
2021/12/20 07:27:27;;;;;;;80.90;27.87;;;;;;;;;;5030335;28;20426;-84
2021/12/20 07:35:31;;;;;;;76.80;28.40;;;;;;;;;;4977462;27;4194056;-83
2021/12/20 07:38:00;;;;;;;92.90;30.80;;;;;;;;;;5106608;28;20209;-84
2021/12/20 07:40:26;;;;;;;86.33;29.87;;;;;;;;;;5105752;28;20419;-87
2021/12/20 07:42:52;;;;;;;79.43;28.17;;;;;;;;;;5117631;28;20440;-86
2021/12/20 07:45:18;;;;;;;87.00;28.07;;;;;;;;;;5130227;27;20944;-87
2021/12/20 07:47:44;;;;;;;98.43;30.20;;;;;;;;;;5127846;28;20522;-87
2021/12/20 07:50:14;;;;;;;79.20;27.03;;;;;;;;;;5114838;28;20877;-85
2021/12/20 07:52:41;;;;;;;82.70;27.60;;;;;;;;;;5090417;28;20416;-85
2021/12/20 07:55:08;;;;;;;59.73;25.30;;;;;;;;;;5089563;28;20614;-85
2021/12/20 07:57:37;;;;;;;78.70;28.27;;;;;;;;;;5086600;28;20395;-82
2021/12/20 08:00:23;;;;;;;95.10;30.23;;;;;;;;;;5084978;28;20828;-82
2021/12/20 08:02:49;;;;;;;80.20;30.70;;;;;;;;;;5081135;28;20481;-85
2021/12/20 08:05:19;;;;;;;72.40;25.93;;;;;;;;;;5086225;28;20453;-85
2021/12/20 08:07:47;;;;;;;79.57;30.97;;;;;;;;;;5079426;28;20399;-85
2021/12/20 08:10:24;;;;;;;76.17;30.27;;;;;;;;;;5073203;28;20494;-85
2021/12/20 08:12:50;;;;;;;77.47;29.67;;;;;;;;;;5094399;28;20448;-85
2021/12/20 08:15:26;;;;;;;86.27;28.87;;;;;;;;;;5098987;28;21250;-84
2021/12/20 08:18:32;;;;;;;79.80;28.83;;;;;;;;;;5098922;28;20447;-85
2021/12/20 08:21:22;;;;;;;66.83;26.73;;;;;;;;;;5092982;28;20420;-85
2021/12/20 08:23:49;;;;;;;85.47;32.97;;;;;;;;;;5098652;28;21062;-83
2021/12/20 08:26:18;;;;;;;91.53;31.00;;;;;;;;;;5093353;28;20503;-85
2021/12/20 08:28:44;;;;;;;73.17;30.20;;;;;;;;;;5099074;28;20424;-85
2021/12/20 08:31:16;;;;;;;87.57;28.00;;;;;;;;;;5101681;28;20424;-85
2021/12/20 08:33:42;;;;;;;95.77;29.80;;;;;;;;;;5096858;28;20964;-85
2021/12/20 08:36:12;;;;;;;88.33;31.43;;;;;;;;;;5097499;28;20444;-85
2021/12/20 08:38:41;;;;;;;81.23;29.23;;;;;;;;;;5098887;28;20426;-85
2021/12/20 08:41:09;;;;;;;66.20;27.30;;;;;;;;;;5100334;28;21077;-85
2021/12/20 08:46:38;;;;;;;72.57;26.40;;;;;;;;;;5093166;28;20415;-85
2021/12/20 08:49:10;;;;;;;68.17;26.70;;;;;;;;;;5087935;28;20420;-83
2021/12/20 09:07:15;;;;;;;61.60;27.20;;;;;;;;;;4804062;27;10192231;-84
2021/12/20 09:09:46;;;;;;;60.33;25.93;;;;;;;;;;5160840;27;20524;-84
2021/12/20 09:12:44;;;;;;;63.57;28.77;;;;;;;;;;5150636;27;20403;-84
2021/12/20 09:15:16;;;;;;;57.27;23.77;;;;;;;;;;5073870;27;20458;-84
2021/12/20 09:21:41;;;;;;;;;;;;;;;;;;;;;
2021/12/20 09:24:36;;;;;;;63.87;25.00;;;;;;;;;;5070367;28;20483;-84
2021/12/20 09:30:11;;;;;;;52.40;21.70;;;;;;;;;;5176064;27;20900;-84
2021/12/20 09:32:53;;;;;;;59.43;26.50;;;;;;;;;;5162532;27;20405;-82
2021/12/20 09:38:34;;;;;;;47.67;21.87;;;;;;;;;;5164501;27;20450;-84
2021/12/20 09:43:46;;;;;;;46.83;21.87;;;4.20;99.90;;;;;;5175531;27;20404;-84
2021/12/20 09:46:13;;;;;;;59.63;24.80;;;;;;;;;;5174556;27;20408;-84
2021/12/20 09:48:39;;;;;;;56.00;24.80;;;;;;;;;;5172929;27;20405;-84
2021/12/20 09:51:07;;;;;;;52.17;21.47;;;4.30;99.50;;;;;;5170880;27;20398;-85
2021/12/20 09:53:33;;;;;;;53.10;21.50;;;;;;;;;;5171554;27;20428;-84
2021/12/20 09:56:00;;;;;;;59.43;20.20;;;4.80;99.40;;;;;;5171132;27;20564;-84
2021/12/20 09:58:27;;;;;;;39.83;18.27;;;4.70;99.90;;;;;;5172187;27;20481;-84
2021/12/20 10:00:53;;;;;;;45.37;20.33;;;;;;;;;;5168594;27;20457;-84
2021/12/20 10:03:20;;;;;;;49.60;23.57;;;5.00;99.10;;;;;;5168586;27;20461;-84
2021/12/20 10:05:46;;;;;;;46.10;21.60;;;;;;;;;;5169804;27;20467;-84
2021/12/20 10:08:20;;;;;;;45.13;20.50;;;;;;;;;;5140043;27;20918;-85
2021/12/20 10:10:46;;;;;;;53.57;25.47;;;;;;;;;;5156319;27;20470;-84
2021/12/20 10:13:22;;;;;;;47.03;21.93;;;5.30;96.20;;;;;;5119502;27;20430;-84
2021/12/20 10:15:49;;;;;;;47.67;20.37;;;;;;;;;;5136347;27;20477;-84
2021/12/20 10:18:15;;;;;;;55.80;21.00;;;;;;;;;;5134471;27;20475;-84
2021/12/20 10:20:42;;;;;;;50.23;21.90;;;6.10;97.00;;;;;;5135065;27;20509;-84
2021/12/20 10:23:22;;;;;;;57.60;20.57;;;6.30;97.50;;;;;;5114855;27;20422;-83
2021/12/20 10:25:54;;;;;;;41.00;18.17;;;6.70;97.80;;;;;;5133747;27;20418;-83
2021/12/20 10:28:23;;;;;;;41.20;20.10;;;6.90;96.70;;;;;;5134333;27;20703;-83
2021/12/20 10:30:56;;;;;;;48.57;19.77;;;7.10;95.70;;;;;;5136353;27;20407;-83
2021/12/20 10:33:23;;;;;;;40.60;18.83;;;7.10;95.80;;;;;;5137228;27;20895;-83
2021/12/20 10:35:51;;;;;;;45.30;18.60;;;;;;;;;;5134631;27;20490;-82
2021/12/20 10:38:30;;;;;;;37.07;19.77;;;7.60;92.90;;;;;;5124463;27;20441;-83
2021/12/20 10:41:01;;;;;;;38.63;19.70;;;7.30;95.20;;;;;;5124917;27;20569;-85
2021/12/20 10:43:32;;;;;;;40.80;19.40;;;7.20;95.50;;;;;;5143039;27;20398;-84
2021/12/20 11:11:50;;;;;;;40.67;19.63;;;;;;;;;;5011563;27;4198378;-84
2021/12/20 11:20:09;;;;;;;47.10;21.87;;;;;;;;;;5027111;28;20346;-85
2021/12/20 11:22:35;;;;;;;39.13;18.60;;;;;;;;;;5027252;28;20906;-84
2021/12/20 11:25:06;;;;;;;48.67;19.30;;;;;;;;;;5016561;28;20539;-85
2021/12/20 11:27:37;;;;;;;42.80;20.27;;;;;;;;;;5007253;28;20400;-84
2021/12/20 11:30:52;;;;;;;41.33;16.70;;;8.10;90.00;;;;;;5006032;28;20420;-84
2021/12/20 11:33:20;;;;;;;49.07;21.43;;;;;;;;;;4981105;28;20440;-84
2021/12/20 11:35:46;;;;;;;39.10;17.80;;;;;;;;;;5021336;28;20469;-84
2021/12/20 11:38:19;;;;;;;49.30;20.20;;;;;;;;;;5025544;28;20794;-85
2021/12/20 11:40:45;;;;;;;38.57;17.40;;;;;;;;;;5026965;28;20408;-84
2021/12/20 11:43:14;;;;;;;41.23;19.10;;;;;;;;;;5026571;28;20404;-85
2021/12/20 11:45:40;;;;;;;51.30;21.37;;;;;;;;;;5025164;28;20467;-85
2021/12/20 11:48:10;;;;;;;44.17;20.80;;;;;;;;;;5026797;28;20759;-84
2021/12/20 11:50:40;;;;;;;34.80;17.40;;;;;;;;;;5026319;28;20431;-85
2021/12/20 11:53:24;;;;;;;36.23;18.23;;;;;;;;;;5026165;28;20412;-85
2021/12/20 11:55:51;;;;;;;45.60;21.60;;;;;;;;;;5024778;28;20455;-85
2021/12/20 11:58:23;;;;;;;41.57;19.30;;;;;;;;;;5024948;28;20848;-84
2021/12/20 12:00:51;;;;;;;41.80;19.20;;;;;;;;;;5026295;28;20411;-84
2021/12/20 12:03:18;;;;;;;48.13;20.40;;;;;;;;;;5026325;28;20412;-84
2021/12/20 12:06:00;;;;;;;53.27;20.40;;;;;;;;;;5026253;28;20633;-84
2021/12/20 12:08:37;;;;;;;40.50;20.00;;;;;;;;;;5025007;28;20502;-84
2021/12/20 12:11:21;;;;;;;39.97;19.50;;;;;;;;;;5025916;28;20926;-84
2021/12/20 12:13:58;;;;;;;39.97;19.97;;;;;;;;;;5026569;28;20491;-84
2021/12/20 12:16:45;;;;;;;42.57;18.27;;;;;;;;;;5025828;28;20471;-84
2021/12/20 12:19:14;;;;;;;49.33;20.23;;;;;;;;;;5024723;28;20872;-84
2021/12/20 12:21:41;;;;;;;42.27;19.20;;;;;;;;;;5034884;28;20422;-84
2021/12/20 12:24:27;;;;;;;;;;;;;;;;;;;;;
2021/12/20 12:26:56;;;;;;;39.00;18.03;;;;;;;;;;4999681;28;20428;-84
2021/12/20 12:29:24;;;;;;;45.27;19.80;;;;;;;;;;5015620;28;20416;-84
2021/12/20 12:35:07;;;;;;;52.87;20.53;;;;;;;;;;5014395;28;20430;-84
2021/12/20 12:41:33;;;;;;;40.53;18.57;;;;;;;;;;5066508;28;20630;-84
2021/12/20 12:43:59;;;;;;;44.13;18.93;;;;;;;;;;5066863;28;20905;-84
2021/12/20 12:50:04;;;;;;;34.60;17.23;;;;;;;;;;5053059;28;20413;-85
2021/12/20 12:52:39;;;;;;;31.57;16.37;;;;;;;;;;5066650;28;20406;-85
2021/12/20 12:55:27;;;;;;;31.67;16.63;;;;;;;;;;5070226;28;20555;-84
2021/12/20 12:58:19;;;;;;;34.50;16.00;;;;;;;;;;5067704;28;20421;-85
2021/12/20 13:00:55;;;;;;;27.20;14.13;;;;;;;;;;5067272;28;20472;-84
2021/12/20 13:03:57;;;;;;;24.80;14.93;;;10.00;78.40;;;;;;5068917;28;20771;-85
2021/12/20 13:06:28;;;;;;;25.93;12.93;;;;;;;;;;5068180;28;20424;-84
2021/12/20 13:08:55;;;;;;;24.03;13.83;;;;;;;;;;5049862;28;20395;-84
2021/12/20 13:11:31;;;;;;;29.67;13.57;;;;;;;;;;5053646;28;20416;-83
2021/12/20 13:17:19;;;;;;;29.80;14.03;;;;;;;;;;5047981;28;20615;-83
2021/12/20 13:19:44;;;;;;;21.97;11.23;;;;;;;;;;5026123;28;20480;-83
2021/12/20 13:22:23;;;;;;;19.33;10.07;;;;;;;;;;5037887;28;20488;-83
2021/12/20 13:25:01;;;;;;;24.53;13.50;;;;;;;;;;5060874;22;20489;-83
2021/12/20 13:27:31;;;;;;;18.10;11.10;;;;;;;;;;5061041;28;20517;-83
2021/12/20 13:30:15;;;;;;;17.07;9.97;;;;;;;;;;5059342;28;20444;-84
2021/12/20 13:32:57;;;;;;;14.37;9.60;;;;;;;;;;5067182;28;20424;-84
2021/12/20 13:36:00;;;;;;;15.80;8.87;;;;;;;;;;5067302;28;20465;-84
2021/12/20 13:38:46;;;;;;;14.20;8.73;;;;;;;;;;5064835;28;20414;-84
2021/12/20 13:41:16;;;;;;;15.80;10.07;;;;;;;;;;5053065;28;20447;-84
2021/12/20 13:44:00;;;;;;;20.90;10.40;;;;;;;;;;5053793;28;20425;-84
2021/12/20 13:52:10;;;;;;;24.50;10.20;;;;;;;;;;5056827;28;20418;-84
2021/12/20 13:54:46;;;;;;;15.10;7.83;;;;;;;;;;5066594;28;20476;-83
2021/12/20 13:57:16;;;;;;;13.50;8.60;;;;;;;;;;5066163;28;20440;-84
2021/12/20 13:59:48;;;;;;;14.33;9.13;;;;;;;;;;5064931;28;20421;-83
2021/12/20 14:26:25;;;;;;;17.23;9.23;;;;;;;;;;6169686;22;1977844;-96
2021/12/20 14:28:53;;;;;;;18.00;10.30;;;;;;;;;;6221538;23;20167;-95
2021/12/20 14:31:30;;;;;;;22.10;9.37;;;;;;;;;;6221200;23;20379;-95
2021/12/20 14:33:57;;;;;;;23.50;9.20;;;;;;;;;;6247480;23;20382;-94
2021/12/20 14:36:24;;;;;;;18.47;9.80;;;;;;;;;;6221067;23;20401;-95
2021/12/20 14:41:41;;;;;;;13.17;8.90;;;;;;;;;;6164040;23;20562;-85
2021/12/20 14:44:24;;;;;;;18.70;9.10;;;;;;;;;;6139206;23;20377;-83
2021/12/20 14:46:55;;;;;;;28.57;10.57;;;;;;;;;;6192067;23;20458;-84
2021/12/20 14:49:47;;;;;;;23.10;10.47;;;;;;;;;;6166901;23;20384;-84
2021/12/20 14:52:14;;;;;;;19.03;9.00;;;;;;;;;;6192663;23;20398;-84
2021/12/20 14:55:20;;;;;;;20.13;9.70;;;;;;;;;;6165132;23;20403;-84
2021/12/20 14:57:50;;;;;;;24.83;10.80;;;;;;;;;;6093911;23;20379;-84
2021/12/20 15:00:21;;;;;;;21.53;9.67;;;;;;;;;;6192213;23;20387;-84
2021/12/20 15:02:47;;;;;;;22.03;10.17;;;;;;;;;;6162948;23;20732;-84
2021/12/20 15:05:15;;;;;;;17.97;10.90;;;;;;;;;;6189465;23;20782;-83
2021/12/20 15:07:42;;;;;;;19.20;10.43;;;;;;;;;;6189322;23;20439;-84
2021/12/20 15:10:09;;;;;;;19.60;10.33;;;;;;;;;;6162809;23;20411;-84
2021/12/20 15:12:50;;;;;;;29.10;10.23;;;;;;;;;;6188998;23;20363;-85
2021/12/20 15:15:28;;;;;;;19.80;9.97;;;;;;;;;;6188916;23;20414;-85
2021/12/20 15:21:05;;;;;;;19.83;9.77;;;;;;;;;;6146892;23;20458;-84
2021/12/20 15:23:31;;;;;;;21.80;10.00;;;;;;;;;;6182027;23;20396;-84
2021/12/20 15:25:57;;;;;;;15.77;9.00;;;;;;;;;;6182108;23;20423;-84
2021/12/20 15:28:43;;;;;;;22.67;10.63;;;;;;;;;;6182164;23;20791;-84
2021/12/20 15:31:09;;;;;;;15.73;8.40;;;;;;;;;;6182584;23;20352;-84
2021/12/20 15:33:51;;;;;;;16.73;9.50;;;;;;;;;;6182087;23;20804;-84
2021/12/20 15:36:17;;;;;;;18.07;10.60;;;;;;;;;;6155525;23;20404;-84
2021/12/20 15:39:09;;;;;;;23.50;10.80;;;;;;;;;;6182381;23;20701;-84
2021/12/20 15:41:35;;;;;;;23.33;9.87;;;;;;;;;;6182159;23;20406;-84
2021/12/20 15:44:02;;;;;;;21.93;11.10;;;;;;;;;;6181313;23;20368;-84
2021/12/20 15:46:28;;;;;;;16.70;10.67;;;;;;;;;;6155447;23;20963;-84
2021/12/20 15:48:54;;;;;;;30.27;11.03;;;;;;;;;;6182448;23;20396;-84
2021/12/20 15:51:21;;;;;;;19.13;12.20;;;;;;;;;;6182369;23;20377;-84
2021/12/20 15:53:48;;;;;;;25.43;10.50;;;;;;;;;;6181364;23;20372;-84
2021/12/20 15:56:14;;;;;;;20.20;9.87;;;;;;;;;;6180720;23;20397;-84
2021/12/20 15:58:40;;;;;;;25.10;11.57;;;;;;;;;;6180926;23;20395;-84
2021/12/20 16:01:09;;;;;;;28.00;14.80;;;;;;;;;;6182070;23;20434;-84
2021/12/20 16:03:35;;;;;;;28.27;13.43;;;;;;;;;;6181838;23;20378;-84
2021/12/20 16:06:08;;;;;;;21.17;11.90;;;;;;;;;;6155125;23;20986;-84
2021/12/20 16:08:37;;;;;;;71.77;33.70;;;;;;;;;;6181853;23;20446;-86
2021/12/20 16:11:05;;;;;;;63.27;25.97;;;;;;;;;;6181828;23;20339;-85
2021/12/20 16:13:34;;;;;;;53.40;25.90;;;;;;;;;;6155206;23;20383;-85
2021/12/20 16:16:03;;;;;;;51.60;26.23;;;;;;;;;;6181500;23;20527;-84
2021/12/20 16:18:29;;;;;;;38.50;20.27;;;;;;;;;;6181680;23;20379;-83
2021/12/20 16:20:57;;;;;;;54.47;29.70;;;;;;;;;;6181665;23;20347;-85
2021/12/20 16:23:23;;;;;;;50.17;29.53;;;;;;;;;;6154905;23;20450;-86
2021/12/20 16:25:49;;;;;;;75.10;36.50;;;;;;;;;;6181526;23;20454;-84
2021/12/20 16:28:16;;;;;;;49.10;27.27;;;;;;;;;;6181775;23;20347;-84
2021/12/20 16:30:44;;;;;;;45.67;21.73;;;;;;;;;;6181484;23;20339;-85
2021/12/20 16:33:13;;;;;;;43.93;18.43;;;;;;;;;;6181456;23;20413;-84
2021/12/20 16:35:40;;;;;;;56.67;22.17;;;;;;;;;;6181848;23;20361;-84
2021/12/20 16:38:07;;;;;;;40.30;18.87;;;;;;;;;;6181414;23;20426;-84
2021/12/20 16:40:33;;;;;;;51.97;23.57;;;;;;;;;;6181544;23;20462;-84
2021/12/20 16:42:59;;;;;;;45.03;21.87;;;;;;;;;;6181558;23;20430;-84